WXM80 ListenWXM80 Stop

You find our weather info also at:

UK Metoffice

WeatherCloud

Weather Underground

Northeastern Weather Network

AWEKAS

Citizen Weather Observer Program (CWOP)

HAMweather, WeatherForYou, PWS Weather


Weather Underground History page Text

Daily Summary for February 20, 2018 Units:  English    Metric   Both
« Previous Day
Next Day »
Daily Weekly Monthly Yearly Custom
  High: Low: Average:
Temperature: 68.0 °F 48.9 °F 56.5 °F
Dew Point: 58.3 °F 48.1 °F 52.9 °F
Humidity: 98 % 69 % 89 %
Wind Speed: 8.4 mph 0.0 mph 2.9 mph
Wind Gust: 16.1 mph - -
Wind:- - SW
Pressure: 30.08 in 30.01 in -
Precipitation: 0.00 in    
Historical Graphs
 
 
Tabular Data for February 20, 2018
Time Temperature Dew Point Pressure Wind Wind Speed Wind Gust Humidity Rainfall Rate (Hourly)
00:01 49.9 °F 49.1 °F 30.05 in SSW 2.6 mph 4.6 mph 97 % 0.00 in
00:06 49.9 °F 49.1 °F 30.05 in South 2.7 mph 4.6 mph 97 % 0.00 in
00:11 49.8 °F 49.0 °F 30.05 in South 2.6 mph 5.0 mph 97 % 0.00 in
00:16 49.7 °F 48.9 °F 30.05 in South 2.7 mph 6.9 mph 97 % 0.00 in
00:21 49.7 °F 48.9 °F 30.05 in SSW 3.4 mph 5.8 mph 97 % 0.00 in
00:26 49.7 °F 48.9 °F 30.04 in SSW 3.4 mph 6.9 mph 97 % 0.00 in
00:31 49.6 °F 48.8 °F 30.05 in SSW 4.3 mph 6.9 mph 97 % 0.00 in
00:36 49.6 °F 48.8 °F 30.05 in South 3.2 mph 5.8 mph 97 % 0.00 in
00:41 49.5 °F 48.7 °F 30.05 in South 4.0 mph 6.9 mph 97 % 0.00 in
00:46 49.4 °F 48.6 °F 30.04 in SSW 4.6 mph 7.0 mph 97 % 0.00 in
00:51 49.3 °F 48.5 °F 30.04 in SSW 4.5 mph 7.0 mph 97 % 0.00 in
00:56 49.2 °F 48.4 °F 30.04 in South 2.7 mph 4.6 mph 97 % 0.00 in
01:01 49.1 °F 48.3 °F 30.05 in SSW 4.8 mph 5.8 mph 97 % 0.00 in
01:06 49.0 °F 48.2 °F 30.05 in South 1.7 mph 4.6 mph 97 % 0.00 in
01:11 49.0 °F 48.2 °F 30.04 in SSW 0.7 mph 4.6 mph 97 % 0.00 in
01:16 48.9 °F 48.1 °F 30.04 in South 4.4 mph 10.4 mph 97 % 0.00 in
01:21 49.0 °F 48.2 °F 30.04 in SW 2.9 mph 3.5 mph 97 % 0.00 in
01:27 48.9 °F 48.1 °F 30.05 in SW 3.2 mph 5.8 mph 97 % 0.00 in
01:32 48.9 °F 48.1 °F 30.04 in SSW 4.5 mph 6.9 mph 97 % 0.00 in
01:37 49.0 °F 48.2 °F 30.04 in SSW 3.5 mph 6.9 mph 97 % 0.00 in
01:42 49.0 °F 48.2 °F 30.04 in SSW 3.6 mph 5.0 mph 97 % 0.00 in
01:47 49.0 °F 48.2 °F 30.04 in South 2.7 mph 6.9 mph 97 % 0.00 in
01:52 49.0 °F 48.2 °F 30.04 in SSW 2.2 mph 4.6 mph 97 % 0.00 in
01:57 49.0 °F 48.2 °F 30.04 in South 4.9 mph 7.0 mph 97 % 0.00 in
02:02 49.0 °F 48.2 °F 30.04 in SSW 2.2 mph 3.5 mph 97 % 0.00 in
02:07 49.0 °F 48.2 °F 30.04 in SSW 1.0 mph 5.8 mph 97 % 0.00 in
02:12 49.0 °F 48.2 °F 30.04 in South 3.4 mph 6.9 mph 97 % 0.00 in
02:17 49.0 °F 48.2 °F 30.04 in South 2.3 mph 6.0 mph 97 % 0.00 in
02:22 49.0 °F 48.2 °F 30.04 in South 4.9 mph 6.9 mph 97 % 0.00 in
02:27 49.0 °F 48.2 °F 30.04 in SW 2.8 mph 5.8 mph 97 % 0.00 in
02:32 49.0 °F 48.2 °F 30.04 in WSW 3.6 mph 7.0 mph 97 % 0.00 in
02:37 49.0 °F 48.2 °F 30.04 in SW 5.6 mph 8.1 mph 97 % 0.00 in
02:43 49.0 °F 48.2 °F 30.04 in SW 1.5 mph 4.6 mph 97 % 0.00 in
02:48 49.0 °F 48.2 °F 30.04 in SSW 2.3 mph 4.6 mph 97 % 0.00 in
02:53 49.0 °F 48.2 °F 30.04 in SW 2.4 mph 3.5 mph 97 % 0.00 in
02:58 49.0 °F 48.2 °F 30.04 in SW 3.5 mph 6.9 mph 97 % 0.00 in
03:03 49.1 °F 48.3 °F 30.04 in SSW 3.1 mph 6.9 mph 97 % 0.00 in
03:08 49.1 °F 48.3 °F 30.04 in SW 1.1 mph 4.6 mph 97 % 0.00 in
03:13 49.1 °F 48.3 °F 30.04 in South 2.2 mph 5.0 mph 97 % 0.00 in
03:18 49.1 °F 48.3 °F 30.04 in SW 2.4 mph 5.8 mph 97 % 0.00 in
03:23 49.1 °F 48.3 °F 30.03 in SSW 4.4 mph 8.1 mph 97 % 0.00 in
03:28 49.2 °F 48.4 °F 30.03 in SW 4.3 mph 6.9 mph 97 % 0.00 in
03:33 49.2 °F 48.4 °F 30.03 in SW 3.5 mph 6.0 mph 97 % 0.00 in
03:38 49.3 °F 48.8 °F 30.03 in SSW 4.1 mph 6.9 mph 98 % 0.00 in
03:43 49.3 °F 48.5 °F 30.03 in SW 4.0 mph 5.8 mph 97 % 0.00 in
03:48 49.4 °F 48.9 °F 30.03 in WSW 2.2 mph 3.5 mph 98 % 0.00 in
03:53 49.5 °F 48.7 °F 30.03 in SW 2.6 mph 4.0 mph 97 % 0.00 in
03:58 49.5 °F 48.7 °F 30.03 in SSW 3.0 mph 5.8 mph 97 % 0.00 in
04:03 49.6 °F 48.8 °F 30.04 in SW 2.9 mph 4.6 mph 97 % 0.00 in
04:09 49.6 °F 48.8 °F 30.04 in SW 2.5 mph 4.6 mph 97 % 0.00 in
04:14 49.7 °F 48.9 °F 30.04 in WSW 1.5 mph 3.5 mph 97 % 0.00 in
04:19 49.7 °F 49.2 °F 30.03 in SW 1.1 mph 4.6 mph 98 % 0.00 in
04:24 49.8 °F 49.3 °F 30.03 in SSW 3.7 mph 6.0 mph 98 % 0.00 in
04:29 49.8 °F 49.3 °F 30.04 in WSW 2.9 mph 4.6 mph 98 % 0.00 in
04:34 49.8 °F 49.3 °F 30.03 in SW 3.0 mph 4.6 mph 98 % 0.00 in
04:39 49.8 °F 49.3 °F 30.04 in WSW 4.3 mph 5.8 mph 98 % 0.00 in
04:44 49.9 °F 49.4 °F 30.04 in SW 3.6 mph 5.8 mph 98 % 0.00 in
04:49 49.9 °F 49.4 °F 30.04 in SW 2.6 mph 4.0 mph 98 % 0.00 in
04:54 49.9 °F 49.4 °F 30.04 in SW 3.0 mph 4.0 mph 98 % 0.00 in
04:59 50.0 °F 49.5 °F 30.04 in WSW 2.6 mph 4.0 mph 98 % 0.00 in
05:04 50.0 °F 49.5 °F 30.04 in SW 0.9 mph 2.3 mph 98 % 0.00 in
05:09 50.0 °F 49.5 °F 30.04 in SSW 3.4 mph 4.6 mph 98 % 0.00 in
05:14 50.1 °F 49.6 °F 30.04 in WSW 1.8 mph 3.5 mph 98 % 0.00 in
05:19 50.0 °F 49.5 °F 30.04 in SW 3.2 mph 4.6 mph 98 % 0.00 in
05:24 50.1 °F 49.6 °F 30.04 in SW 3.1 mph 6.9 mph 98 % 0.00 in
05:30 50.1 °F 49.6 °F 30.05 in SW 2.3 mph 4.6 mph 98 % 0.00 in
05:35 50.1 °F 49.6 °F 30.05 in SSW 0.3 mph 6.9 mph 98 % 0.00 in
05:40 50.1 °F 49.6 °F 30.04 in WSW 2.0 mph 4.6 mph 98 % 0.00 in
05:45 50.1 °F 49.6 °F 30.05 in WSW 1.0 mph 3.5 mph 98 % 0.00 in
05:50 50.2 °F 49.7 °F 30.05 in SW 0.1 mph 3.5 mph 98 % 0.00 in
05:55 50.1 °F 49.6 °F 30.05 in SW 2.1 mph 4.0 mph 98 % 0.00 in
06:00 50.2 °F 49.7 °F 30.05 in SW 0.6 mph 3.5 mph 98 % 0.00 in
06:05 50.1 °F 49.6 °F 30.05 in SW 1.9 mph 3.5 mph 98 % 0.00 in
06:10 50.1 °F 49.6 °F 30.05 in SW 1.5 mph 2.3 mph 98 % 0.00 in
06:15 50.1 °F 49.6 °F 30.05 in SW 0.3 mph 2.3 mph 98 % 0.00 in
06:20 50.1 °F 49.6 °F 30.05 in SW 0.5 mph 3.5 mph 98 % 0.00 in
06:25 50.1 °F 49.6 °F 30.06 in West 2.0 mph 3.5 mph 98 % 0.00 in
06:30 50.0 °F 49.5 °F 30.06 in SW 1.6 mph 3.5 mph 98 % 0.00 in
06:35 50.0 °F 49.5 °F 30.06 in SSW 2.9 mph 3.5 mph 98 % 0.00 in
06:40 50.0 °F 49.5 °F 30.06 in SW 3.6 mph 4.6 mph 98 % 0.00 in
06:45 50.1 °F 49.6 °F 30.06 in SW 2.2 mph 5.8 mph 98 % 0.00 in
06:50 50.2 °F 49.7 °F 30.06 in WSW 4.6 mph 4.6 mph 98 % 0.00 in
06:56 50.3 °F 49.8 °F 30.06 in SW 2.0 mph 8.0 mph 98 % 0.00 in
07:01 50.5 °F 50.0 °F 30.06 in SSW 5.8 mph 9.2 mph 98 % 0.00 in
07:06 50.7 °F 50.2 °F 30.06 in SW 6.8 mph 10.4 mph 98 % 0.00 in
07:11 51.0 °F 50.5 °F 30.06 in SW 5.8 mph 11.5 mph 98 % 0.00 in
07:16 51.2 °F 50.7 °F 30.06 in SW 5.0 mph 9.2 mph 98 % 0.00 in
07:21 51.4 °F 50.9 °F 30.06 in West 5.4 mph 10.4 mph 98 % 0.00 in
07:26 51.7 °F 51.2 °F 30.07 in WSW 5.1 mph 9.0 mph 98 % 0.00 in
07:31 51.9 °F 51.4 °F 30.07 in SW 4.6 mph 10.4 mph 98 % 0.00 in
07:36 52.1 °F 51.6 °F 30.07 in SW 5.2 mph 10.4 mph 98 % 0.00 in
07:41 52.2 °F 51.7 °F 30.07 in WSW 5.2 mph 9.0 mph 98 % 0.00 in
07:46 52.4 °F 51.9 °F 30.07 in SW 5.8 mph 11.5 mph 98 % 0.00 in
07:51 52.4 °F 51.9 °F 30.07 in SSW 5.3 mph 7.0 mph 98 % 0.00 in
07:56 52.5 °F 52.0 °F 30.07 in SSW 4.6 mph 8.0 mph 98 % 0.00 in
08:01 52.6 °F 52.1 °F 30.07 in WSW 3.3 mph 9.0 mph 98 % 0.00 in
08:07 52.7 °F 52.2 °F 30.07 in WSW 7.3 mph 10.4 mph 98 % 0.00 in
08:12 52.8 °F 52.3 °F 30.06 in WSW 4.0 mph 6.9 mph 98 % 0.00 in
08:17 53.0 °F 52.5 °F 30.07 in SSW 5.9 mph 10.4 mph 98 % 0.00 in
08:22 53.1 °F 52.6 °F 30.07 in SSW 4.7 mph 11.5 mph 98 % 0.00 in
08:27 53.2 °F 52.7 °F 30.07 in WSW 3.1 mph 4.6 mph 98 % 0.00 in
08:32 53.2 °F 52.7 °F 30.07 in WSW 6.5 mph 11.5 mph 98 % 0.00 in
08:37 53.3 °F 52.8 °F 30.07 in WSW 7.7 mph 16.1 mph 98 % 0.00 in
08:42 53.5 °F 52.9 °F 30.07 in SW 6.7 mph 9.2 mph 98 % 0.00 in
08:47 53.5 °F 52.9 °F 30.07 in West 6.1 mph 10.0 mph 98 % 0.00 in
08:52 53.5 °F 52.9 °F 30.07 in SSW 3.3 mph 5.8 mph 98 % 0.00 in
08:57 53.5 °F 52.9 °F 30.08 in SW 5.8 mph 9.2 mph 98 % 0.00 in
09:02 53.4 °F 52.8 °F 30.07 in SW 5.7 mph 10.4 mph 98 % 0.00 in
09:07 53.4 °F 52.8 °F 30.07 in WSW 4.8 mph 10.4 mph 98 % 0.00 in
09:12 53.5 °F 52.9 °F 30.07 in West 3.6 mph 6.0 mph 98 % 0.00 in
09:17 53.6 °F 53.0 °F 30.07 in WSW 7.0 mph 11.0 mph 98 % 0.00 in
09:22 53.7 °F 53.1 °F 30.07 in SSW 2.4 mph 9.2 mph 98 % 0.00 in
09:27 53.9 °F 53.3 °F 30.07 in West 4.8 mph 7.0 mph 98 % 0.00 in
09:32 54.0 °F 53.4 °F 30.07 in West 3.9 mph 6.9 mph 98 % 0.00 in
09:37 54.0 °F 53.4 °F 30.07 in SSW 5.6 mph 6.9 mph 98 % 0.00 in
09:42 54.1 °F 53.5 °F 30.07 in SSW 1.0 mph 6.9 mph 98 % 0.00 in
09:47 54.4 °F 53.8 °F 30.07 in SW 3.8 mph 5.8 mph 98 % 0.00 in
09:53 54.4 °F 53.8 °F 30.07 in WSW 4.0 mph 6.9 mph 98 % 0.00 in
09:58 54.5 °F 53.9 °F 30.07 in West 2.0 mph 8.1 mph 98 % 0.00 in
10:03 54.6 °F 54.0 °F 30.07 in WSW 1.7 mph 6.0 mph 98 % 0.00 in
10:08 54.8 °F 54.2 °F 30.07 in WSW 5.0 mph 10.4 mph 98 % 0.00 in
10:13 54.9 °F 54.3 °F 30.07 in SW 5.1 mph 8.1 mph 98 % 0.00 in
10:18 55.0 °F 54.4 °F 30.07 in West 0.8 mph 2.3 mph 98 % 0.00 in
10:23 55.1 °F 54.5 °F 30.07 in WSW 2.5 mph 4.6 mph 98 % 0.00 in
10:28 55.3 °F 54.7 °F 30.07 in WSW 3.7 mph 6.9 mph 98 % 0.00 in
10:33 55.4 °F 54.8 °F 30.07 in WSW 3.5 mph 6.0 mph 98 % 0.00 in
10:38 55.6 °F 54.8 °F 30.07 in South 3.8 mph 5.8 mph 97 % 0.00 in
10:43 55.9 °F 55.1 °F 30.07 in WSW 3.7 mph 5.8 mph 97 % 0.00 in
10:48 56.2 °F 55.4 °F 30.07 in SSW 3.4 mph 5.8 mph 97 % 0.00 in
10:53 56.5 °F 55.7 °F 30.07 in SW 1.9 mph 8.1 mph 97 % 0.00 in
10:58 56.9 °F 56.1 °F 30.07 in SW 5.2 mph 8.1 mph 97 % 0.00 in
11:03 57.3 °F 56.2 °F 30.07 in WSW 4.1 mph 9.0 mph 96 % 0.00 in
11:08 57.7 °F 56.3 °F 30.06 in WSW 3.6 mph 6.9 mph 95 % 0.00 in
11:13 58.1 °F 56.4 °F 30.06 in SW 5.0 mph 11.5 mph 94 % 0.00 in
11:18 58.4 °F 56.4 °F 30.06 in West 1.7 mph 8.1 mph 93 % 0.00 in
11:23 58.8 °F 56.5 °F 30.06 in WNW 2.5 mph 5.8 mph 92 % 0.00 in
11:29 59.2 °F 56.6 °F 30.06 in South 4.4 mph 8.1 mph 91 % 0.00 in
11:34 59.6 °F 56.7 °F 30.06 in SSW 3.1 mph 9.2 mph 90 % 0.00 in
11:39 60.2 °F 56.9 °F 30.06 in SW 2.2 mph 9.2 mph 89 % 0.00 in
11:44 60.7 °F 57.1 °F 30.06 in South 6.6 mph 11.5 mph 88 % 0.00 in
11:49 61.2 °F 57.0 °F 30.06 in SW 8.4 mph 13.8 mph 86 % 0.00 in
11:54 61.6 °F 57.4 °F 30.06 in WSW 4.5 mph 8.1 mph 86 % 0.00 in
12:00 61.9 °F 57.3 °F 30.05 in SW 6.0 mph 8.1 mph 85 % 0.00 in
12:05 62.1 °F 56.9 °F 30.05 in West 2.7 mph 4.6 mph 83 % 0.00 in
12:10 62.2 °F 56.3 °F 30.05 in West 5.5 mph 6.0 mph 81 % 0.00 in
12:15 62.3 °F 56.4 °F 30.04 in West 5.0 mph 9.2 mph 81 % 0.00 in
12:20 62.5 °F 56.9 °F 30.04 in SW 1.0 mph 5.8 mph 82 % 0.00 in
12:25 62.8 °F 56.5 °F 30.04 in WNW 5.0 mph 6.9 mph 80 % 0.00 in
12:30 63.0 °F 56.7 °F 30.03 in WSW 3.5 mph 10.0 mph 80 % 0.00 in
12:35 63.2 °F 56.6 °F 30.03 in WSW 3.4 mph 5.8 mph 79 % 0.00 in
12:40 63.4 °F 56.4 °F 30.03 in WSW 4.0 mph 6.9 mph 78 % 0.00 in
12:45 63.8 °F 56.8 °F 30.03 in WSW 2.4 mph 10.4 mph 78 % 0.00 in
12:50 63.9 °F 56.2 °F 30.03 in SW 7.1 mph 10.4 mph 76 % 0.00 in
12:55 64.1 °F 56.7 °F 30.03 in SW 2.7 mph 4.6 mph 77 % 0.00 in
13:00 64.3 °F 56.9 °F 30.02 in West 1.7 mph 3.5 mph 77 % 0.00 in
13:05 64.7 °F 57.3 °F 30.02 in SW 6.0 mph 9.2 mph 77 % 0.00 in
13:10 65.0 °F 57.2 °F 30.02 in WSW 1.5 mph 3.5 mph 76 % 0.00 in
13:15 65.4 °F 57.3 °F 30.02 in WSW 1.4 mph 3.5 mph 75 % 0.00 in
13:20 65.6 °F 57.5 °F 30.02 in WSW 3.5 mph 3.5 mph 75 % 0.00 in
13:25 65.9 °F 57.7 °F 30.02 in WSW 1.5 mph 2.3 mph 75 % 0.00 in
13:30 66.2 °F 57.7 °F 30.02 in WNW 2.5 mph 5.8 mph 74 % 0.00 in
13:36 66.4 °F 57.1 °F 30.02 in West 5.0 mph 8.0 mph 72 % 0.00 in
13:41 66.5 °F 57.2 °F 30.02 in West 2.0 mph 7.0 mph 72 % 0.00 in
13:46 66.3 °F 56.6 °F 30.02 in WSW 2.0 mph 8.0 mph 71 % 0.00 in
13:51 66.3 °F 57.0 °F 30.01 in WSW 2.0 mph 5.0 mph 72 % 0.00 in
13:56 66.5 °F 57.2 °F 30.01 in SSW 3.8 mph 5.8 mph 72 % 0.00 in
14:01 66.8 °F 57.9 °F 30.02 in WSW 3.1 mph 9.2 mph 73 % 0.00 in
14:06 67.2 °F 57.9 °F 30.02 in West 2.1 mph 4.6 mph 72 % 0.00 in
14:11 67.4 °F 57.3 °F 30.02 in West 4.2 mph 5.8 mph 70 % 0.00 in
14:16 67.5 °F 57.4 °F 30.02 in West 3.8 mph 7.0 mph 70 % 0.00 in
14:21 67.6 °F 57.1 °F 30.02 in WSW 4.0 mph 8.0 mph 69 % 0.00 in
14:26 67.6 °F 57.5 °F 30.02 in WNW 4.3 mph 7.0 mph 70 % 0.00 in
14:31 67.6 °F 57.5 °F 30.02 in SSW 1.9 mph 6.9 mph 70 % 0.00 in
14:36 67.7 °F 58.3 °F 30.02 in WSW 2.1 mph 5.8 mph 72 % 0.00 in
14:41 67.9 °F 58.1 °F 30.01 in South 2.7 mph 5.8 mph 71 % 0.00 in
14:46 68.0 °F 57.8 °F 30.01 in SSW 1.7 mph 6.9 mph 70 % 0.00 in
14:51 68.0 °F 57.8 °F 30.02 in WSW 5.2 mph 9.2 mph 70 % 0.00 in
14:56 68.0 °F 57.4 °F 30.01 in SW 3.6 mph 8.1 mph 69 % 0.00 in
15:01 68.0 °F 57.4 °F 30.02 in SW 2.9 mph 6.9 mph 69 % 0.00 in
15:06 67.9 °F 57.4 °F 30.01 in SSW 4.5 mph 6.9 mph 69 % 0.00 in
15:11 67.9 °F 57.8 °F 30.01 in SSW 2.7 mph 6.0 mph 70 % 0.00 in
15:16 67.8 °F 57.3 °F 30.01 in West 3.3 mph 6.9 mph 69 % 0.00 in
15:21 67.6 °F 57.5 °F 30.01 in SSW 3.8 mph 4.6 mph 70 % 0.00 in
15:26 67.6 °F 57.5 °F 30.01 in SW 2.8 mph 5.8 mph 70 % 0.00 in
15:31 67.6 °F 57.5 °F 30.01 in South 5.8 mph 8.1 mph 70 % 0.00 in
15:36 67.5 °F 57.4 °F 30.02 in WSW 4.9 mph 8.1 mph 70 % 0.00 in
15:42 67.5 °F 57.4 °F 30.02 in SW 5.3 mph 8.1 mph 70 % 0.00 in
15:47 67.5 °F 57.4 °F 30.01 in SSW 2.6 mph 9.2 mph 70 % 0.00 in
15:52 67.5 °F 57.8 °F 30.01 in SSW 2.7 mph 5.8 mph 71 % 0.00 in
15:57 67.5 °F 57.4 °F 30.01 in SW 5.8 mph 11.5 mph 70 % 0.00 in
16:02 67.4 °F 57.3 °F 30.01 in South 5.0 mph 11.5 mph 70 % 0.00 in
16:07 67.3 °F 57.2 °F 30.01 in SW 4.5 mph 9.2 mph 70 % 0.00 in
16:12 67.2 °F 57.1 °F 30.02 in SW 5.6 mph 7.0 mph 70 % 0.00 in
16:17 67.1 °F 57.4 °F 30.01 in SW 2.0 mph 4.6 mph 71 % 0.00 in
16:22 67.1 °F 57.4 °F 30.02 in SW 0.1 mph 1.2 mph 71 % 0.00 in
16:27 67.1 °F 57.8 °F 30.02 in SW 0.8 mph 2.3 mph 72 % 0.00 in
16:32 67.0 °F 57.7 °F 30.02 in South 1.7 mph 4.0 mph 72 % 0.00 in
16:37 66.9 °F 57.6 °F 30.02 in SW 1.3 mph 3.5 mph 72 % 0.00 in
16:42 66.9 °F 57.6 °F 30.03 in SW 2.5 mph 4.6 mph 72 % 0.00 in
16:47 66.8 °F 57.5 °F 30.03 in WSW 0.4 mph 5.8 mph 72 % 0.00 in
16:53 66.7 °F 57.4 °F 30.03 in SW 1.8 mph 3.5 mph 72 % 0.00 in
16:58 66.6 °F 57.3 °F 30.03 in SW 1.2 mph 3.5 mph 72 % 0.00 in
17:03 66.5 °F 57.2 °F 30.03 in WSW 1.7 mph 3.5 mph 72 % 0.00 in
17:08 66.3 °F 57.0 °F 30.03 in Calm   1.2 mph 72 % 0.00 in
17:13 66.2 °F 57.3 °F 30.03 in SSW 0.5 mph 3.5 mph 73 % 0.00 in
17:18 66.0 °F 57.1 °F 30.03 in SSW 0.5 mph 2.3 mph 73 % 0.00 in
17:23 65.8 °F 56.9 °F 30.04 in South 1.7 mph 3.5 mph 73 % 0.00 in
17:28 65.4 °F 56.5 °F 30.04 in South 1.8 mph 3.5 mph 73 % 0.00 in
17:33 65.2 °F 56.3 °F 30.04 in South 0.3 mph 3.5 mph 73 % 0.00 in
17:38 64.9 °F 56.0 °F 30.05 in South 1.3 mph 4.6 mph 73 % 0.00 in
17:43 64.4 °F 55.9 °F 30.05 in SSW 0.6 mph 3.5 mph 74 % 0.00 in
17:48 64.1 °F 55.6 °F 30.05 in SSW 0.6 mph 1.2 mph 74 % 0.00 in
17:53 63.7 °F 55.6 °F 30.05 in SSW 1.7 mph 4.0 mph 75 % 0.00 in
17:58 63.4 °F 55.3 °F 30.05 in Calm   1.2 mph 75 % 0.00 in
18:03 63.0 °F 55.3 °F 30.05 in SSW 0.1 mph 3.5 mph 76 % 0.00 in
18:13 62.4 °F 55.1 °F 30.05 in SSW 0.5 mph 3.5 mph 77 % 0.00 in
18:18 62.2 °F 55.3 °F 30.05 in Calm   1.2 mph 78 % 0.00 in
18:24 61.8 °F 54.9 °F 30.05 in Calm     78 % 0.00 in
18:29 61.6 °F 55.0 °F 30.05 in Calm   4.6 mph 79 % 0.00 in
18:34 61.3 °F 54.7 °F 30.05 in SSW 0.3 mph 1.2 mph 79 % 0.00 in
18:39 61.1 °F 54.5 °F 30.05 in SSW 1.5 mph 3.5 mph 79 % 0.00 in
18:44 60.8 °F 54.6 °F 30.06 in SSW 0.2 mph 2.3 mph 80 % 0.00 in
18:49 60.5 °F 54.3 °F 30.06 in SSW 1.6 mph 3.5 mph 80 % 0.00 in
18:54 60.2 °F 54.3 °F 30.05 in SSW 1.4 mph 3.5 mph 81 % 0.00 in
18:59 59.9 °F 54.1 °F 30.06 in SSW 1.7 mph 3.0 mph 81 % 0.00 in
19:04 59.6 °F 54.1 °F 30.06 in SSW 1.8 mph 3.5 mph 82 % 0.00 in
19:09 59.3 °F 53.8 °F 30.05 in SSW 1.4 mph 2.3 mph 82 % 0.00 in
19:14 59.1 °F 53.9 °F 30.06 in SSW 0.9 mph 3.5 mph 83 % 0.00 in
19:19 58.7 °F 53.5 °F 30.06 in SSW 1.2 mph 4.6 mph 83 % 0.00 in
19:24 58.4 °F 53.6 °F 30.06 in South 1.9 mph 5.0 mph 84 % 0.00 in
19:29 58.1 °F 53.3 °F 30.06 in SSW 2.5 mph 6.0 mph 84 % 0.00 in
19:34 57.8 °F 53.0 °F 30.06 in South 1.9 mph 3.5 mph 84 % 0.00 in
19:39 57.5 °F 52.7 °F 30.06 in South 2.2 mph 5.8 mph 84 % 0.00 in
19:45 57.2 °F 52.7 °F 30.06 in SSW 1.0 mph 4.6 mph 85 % 0.00 in
19:50 57.0 °F 52.5 °F 30.06 in South 1.8 mph 3.5 mph 85 % 0.00 in
19:55 56.7 °F 52.6 °F 30.06 in South 2.6 mph 4.0 mph 86 % 0.00 in
20:00 56.5 °F 52.4 °F 30.06 in South 1.3 mph 4.6 mph 86 % 0.00 in
20:05 56.3 °F 52.2 °F 30.06 in SSW 3.5 mph 5.0 mph 86 % 0.00 in
20:10 56.0 °F 52.2 °F 30.06 in SSW 2.9 mph 5.0 mph 87 % 0.00 in
20:15 55.8 °F 52.0 °F 30.06 in SSW 1.7 mph 3.5 mph 87 % 0.00 in
20:20 55.6 °F 52.1 °F 30.06 in SSW 2.8 mph 4.6 mph 88 % 0.00 in
20:25 55.5 °F 52.0 °F 30.06 in SSW 2.4 mph 3.5 mph 88 % 0.00 in
20:30 55.4 °F 51.9 °F 30.06 in SSW 1.8 mph 4.0 mph 88 % 0.00 in
20:35 55.4 °F 51.9 °F 30.06 in South 0.4 mph 2.0 mph 88 % 0.00 in
20:40 55.3 °F 51.8 °F 30.06 in SSW 1.6 mph 4.0 mph 88 % 0.00 in
20:45 55.2 °F 51.7 °F 30.06 in SW 2.2 mph 4.6 mph 88 % 0.00 in
20:50 55.1 °F 51.6 °F 30.06 in SW 1.6 mph 2.0 mph 88 % 0.00 in
20:55 55.0 °F 51.8 °F 30.06 in SW 0.6 mph 2.3 mph 89 % 0.00 in
21:00 55.0 °F 51.8 °F 30.06 in Calm   1.2 mph 89 % 0.00 in
21:05 55.0 °F 51.8 °F 30.07 in SW 1.0 mph 1.0 mph 89 % 0.00 in
21:11 54.9 °F 51.7 °F 30.06 in SW 1.0 mph 4.0 mph 89 % 0.00 in
21:16 54.9 °F 52.1 °F 30.07 in SSW 1.0 mph 5.0 mph 90 % 0.00 in
21:20 54.9 °F 52.0 °F 30.07 in SW 0.4 mph 3.5 mph 90 % 0.00 in
21:25 54.9 °F 52.0 °F 30.07 in Calm   4.0 mph 90 % 0.00 in
21:30 54.9 °F 52.0 °F 30.07 in SW 1.0 mph 5.0 mph 90 % 0.00 in
21:35 54.9 °F 52.0 °F 30.07 in SW 0.4 mph 2.3 mph 90 % 0.00 in
21:41 54.9 °F 52.0 °F 30.07 in SW 2.0 mph 5.0 mph 90 % 0.00 in
21:46 54.8 °F 51.9 °F 30.07 in SW 2.0 mph 5.0 mph 90 % 0.00 in
21:51 54.8 °F 51.9 °F 30.07 in SW 1.0 mph 4.0 mph 90 % 0.00 in
21:56 54.8 °F 51.9 °F 30.07 in Calm   3.0 mph 90 % 0.00 in
22:01 54.8 °F 52.2 °F 30.07 in South 2.3 mph 3.5 mph 91 % 0.00 in
22:06 54.8 °F 52.2 °F 30.07 in SW 1.1 mph 6.9 mph 91 % 0.00 in
22:11 54.8 °F 52.2 °F 30.07 in SSW 1.2 mph 5.8 mph 91 % 0.00 in
22:16 54.8 °F 52.2 °F 30.07 in SW 0.5 mph 3.5 mph 91 % 0.00 in
22:21 54.8 °F 52.2 °F 30.07 in South 3.9 mph 8.1 mph 91 % 0.00 in
22:26 54.8 °F 52.2 °F 30.07 in South 3.4 mph 8.1 mph 91 % 0.00 in
22:31 54.8 °F 52.2 °F 30.07 in SSW 1.8 mph 4.0 mph 91 % 0.00 in
22:36 54.8 °F 52.2 °F 30.06 in SW 3.8 mph 6.9 mph 91 % 0.00 in
22:41 54.8 °F 52.2 °F 30.06 in SW 1.1 mph 3.5 mph 91 % 0.00 in
22:46 54.8 °F 52.2 °F 30.06 in SW 1.7 mph 3.5 mph 91 % 0.00 in
22:51 54.8 °F 52.5 °F 30.06 in South 3.6 mph 5.8 mph 92 % 0.00 in
22:56 54.8 °F 52.5 °F 30.07 in South 1.8 mph 3.5 mph 92 % 0.00 in
23:01 54.9 °F 52.6 °F 30.06 in SSW 1.5 mph 5.0 mph 92 % 0.00 in
23:06 54.9 °F 52.6 °F 30.07 in SSW 3.7 mph 8.1 mph 92 % 0.00 in
23:11 55.0 °F 52.7 °F 30.06 in SSW 4.8 mph 7.0 mph 92 % 0.00 in
23:16 55.0 °F 53.0 °F 30.07 in SSW 3.6 mph 6.9 mph 93 % 0.00 in
23:21 55.1 °F 53.1 °F 30.07 in WSW 3.7 mph 5.8 mph 93 % 0.00 in
23:26 55.1 °F 53.1 °F 30.06 in SSW 1.5 mph 3.5 mph 93 % 0.00 in
23:32 55.0 °F 53.0 °F 30.07 in SW 2.5 mph 6.9 mph 93 % 0.00 in
23:37 54.9 °F 52.9 °F 30.07 in SW 4.1 mph 6.9 mph 93 % 0.00 in
23:42 54.8 °F 52.5 °F 30.07 in SW 4.3 mph 8.0 mph 92 % 0.00 in
23:47 54.6 °F 52.3 °F 30.08 in South 3.3 mph 4.6 mph 92 % 0.00 in
23:52 54.5 °F 52.5 °F 30.07 in WSW 2.0 mph 3.5 mph 93 % 0.00 in
23:57 54.4 °F 52.4 °F 30.07 in SSW 2.9 mph 5.8 mph 93 % 0.00 in
Crab Meadow Weather
Compliments of Weather Underground - 3 mb

Script developed by  Jim McMurry - jmcmurry@mwt.net Adapted for the template by  Wim van der Kuil - Leuven-Template.eu

Astronomy: Mercury can get as hot as 800 degrees and can be as cold as 300 degrees below zero.